Montreal, Canada
Current Conditions -  °F | °C
As of 5:00 PM on Monday 22 Dec 2014 (Local Time) from CYHU Reporting Station
Broken Clouds Broken Clouds  
Wind Chill:   Ceiling: 3800
Heat Index: 18°   Visibility: 9mi
Dew Point: 14°   Wind: 13mph
Humidity: 86%   Direction: 40°NE
Pressure: 30.35"   Gusts: NA
Location:  45.51°N, 73.55°W
Report Text: CYHU 222200Z AUTO 04011KT 9SM BKN038 M08/M10 A3035 RMK SLP279
Loading
Personal Weather Stations






























Interactive Weather Map New forecast layout! Learn more

10-Day Weather Forecast

Advertisements
Track Severe Weather on mobile